createdAt,value
2019-05-21T00:04:31.611Z,16.20
2019-05-21T00:09:23.263Z,15.80
2019-05-21T00:14:14.172Z,15.70
2019-05-21T00:19:05.086Z,15.40
2019-05-21T00:23:56.733Z,16.10
2019-05-21T00:29:00.032Z,16.10
2019-05-21T00:34:04.220Z,15.90
2019-05-21T00:39:07.681Z,15.90
2019-05-21T00:43:58.578Z,15.40
2019-05-21T00:48:50.220Z,14.90
2019-05-21T00:53:41.877Z,15.50
2019-05-21T00:58:32.788Z,15.50
2019-05-21T01:03:38.678Z,15.90
2019-05-21T01:08:29.585Z,15.60
2019-05-21T01:13:20.486Z,15.20
2019-05-21T01:18:12.137Z,14.60
2019-05-21T01:23:03.041Z,14.50
2019-05-21T01:27:53.947Z,14.90
2019-05-21T01:32:45.582Z,15.40
2019-05-21T01:37:37.218Z,15.00
2019-05-21T01:42:28.868Z,14.60
2019-05-21T01:47:20.502Z,14.30
2019-05-21T01:52:12.154Z,14.20
2019-05-21T01:57:03.075Z,14.20
2019-05-21T02:01:53.982Z,14.90
2019-05-21T02:06:44.885Z,15.20
2019-05-21T02:11:35.805Z,14.90
2019-05-21T02:16:27.468Z,14.20
2019-05-21T02:21:18.378Z,14.10
2019-05-21T02:26:09.291Z,13.90
2019-05-21T02:31:00.200Z,14.00
2019-05-21T02:35:54.660Z,14.80
2019-05-21T02:40:42.790Z,14.80
2019-05-21T02:45:33.690Z,14.40
2019-05-21T02:50:24.587Z,14.10
2019-05-21T02:55:16.238Z,13.60
2019-05-21T03:00:14.000Z,13.60
2019-05-21T03:05:05.661Z,14.70
2019-05-21T03:09:56.625Z,14.70
2019-05-21T03:14:47.526Z,14.70
2019-05-21T03:19:38.427Z,14.30
2019-05-21T03:24:29.341Z,14.00
2019-05-21T03:29:20.322Z,13.70
2019-05-21T03:34:11.964Z,14.20
2019-05-21T03:39:03.613Z,14.70
2019-05-21T03:43:54.519Z,14.70
2019-05-21T03:48:46.168Z,14.20
2019-05-21T03:53:37.089Z,14.20
2019-05-21T03:58:28.014Z,14.00
2019-05-21T04:03:18.917Z,13.70
2019-05-21T04:08:10.642Z,14.50
2019-05-21T04:13:04.549Z,14.50
2019-05-21T04:17:55.471Z,15.00
2019-05-21T04:22:51.299Z,14.80
2019-05-21T04:27:42.952Z,14.20
2019-05-21T04:32:33.886Z,14.20
2019-05-21T04:37:24.791Z,14.10
2019-05-21T04:42:15.682Z,14.20
2019-05-21T04:47:07.344Z,15.30
2019-05-21T04:51:58.239Z,15.30
2019-05-21T04:56:50.089Z,14.70
2019-05-21T05:01:41.117Z,14.70
2019-05-21T05:06:32.023Z,14.60
2019-05-21T05:11:23.673Z,14.90
2019-05-21T05:16:14.565Z,14.90
2019-05-21T05:21:06.210Z,15.80
2019-05-21T05:25:57.860Z,15.40
2019-05-21T05:30:48.758Z,15.40
2019-05-21T05:35:40.394Z,15.00
2019-05-21T05:40:32.034Z,14.90
2019-05-21T05:45:23.686Z,15.60
2019-05-21T05:50:15.549Z,15.60
2019-05-21T05:55:06.462Z,16.20
2019-05-21T05:59:57.374Z,16.10
2019-05-21T06:04:48.273Z,15.80
2019-05-21T06:09:39.179Z,15.60
2019-05-21T06:14:30.827Z,15.70
2019-05-21T06:19:21.759Z,15.70
2019-05-21T06:24:13.659Z,16.60
2019-05-21T06:29:03.592Z,16.90
2019-05-21T06:33:54.503Z,16.60
2019-05-21T06:38:45.408Z,16.40
2019-05-21T06:43:37.055Z,16.20
2019-05-21T06:48:28.694Z,16.90
2019-05-21T06:53:19.619Z,16.90
2019-05-21T06:58:10.535Z,17.60
2019-05-21T07:03:01.502Z,17.50
2019-05-21T07:07:52.406Z,17.30
2019-05-21T07:12:43.307Z,17.20
2019-05-21T07:17:34.213Z,17.10
2019-05-21T07:22:25.112Z,17.60
2019-05-21T07:27:16.806Z,18.50
2019-05-21T07:32:07.702Z,18.50
2019-05-21T07:36:58.628Z,18.40
2019-05-21T07:41:49.532Z,18.40
2019-05-21T07:46:40.439Z,18.40
2019-05-21T07:51:31.414Z,18.70
2019-05-21T07:56:22.311Z,19.50
2019-05-21T08:01:13.200Z,19.80
2019-05-21T08:06:04.138Z,19.80
2019-05-21T08:10:55.802Z,19.60
2019-05-21T08:15:46.703Z,19.60
2019-05-21T08:20:37.590Z,19.80
2019-05-21T08:25:28.519Z,20.50
2019-05-21T08:30:19.460Z,20.90
2019-05-21T08:35:10.355Z,20.90
2019-05-21T08:40:01.265Z,20.70
2019-05-21T08:44:52.168Z,20.60
2019-05-21T08:49:44.344Z,21.00
2019-05-21T08:54:40.998Z,21.00
2019-05-21T08:59:31.916Z,21.60
2019-05-21T09:04:22.851Z,21.60
2019-05-21T09:09:13.801Z,21.30
2019-05-21T09:14:04.759Z,21.20
2019-05-21T09:18:55.663Z,21.10
2019-05-21T09:23:47.324Z,22.00
2019-05-21T09:28:38.256Z,21.90
2019-05-21T09:33:29.174Z,22.10
2019-05-21T09:38:20.092Z,21.90
2019-05-21T09:43:11.000Z,21.70
2019-05-21T09:48:01.959Z,21.60
2019-05-21T09:52:52.869Z,21.90
2019-05-21T09:57:43.798Z,22.50
2019-05-21T10:02:34.719Z,22.50
2019-05-21T10:07:39.324Z,22.30
2019-05-21T10:12:17.299Z,21.90
2019-05-21T10:17:08.942Z,22.20
2019-05-21T10:22:00.597Z,22.70
2019-05-21T10:26:51.517Z,22.70
2019-05-21T10:31:42.441Z,22.90
2019-05-21T10:36:33.394Z,22.70
2019-05-21T10:41:24.303Z,22.50
2019-05-21T10:46:15.238Z,22.40
2019-05-21T10:51:06.129Z,22.70
2019-05-21T10:55:57.036Z,23.40
2019-05-21T11:00:47.944Z,23.80
2019-05-21T11:05:40.845Z,23.80
2019-05-21T11:10:31.783Z,23.70
2019-05-21T11:15:22.732Z,23.70
2019-05-21T11:20:14.370Z,24.80
2019-05-21T11:25:05.269Z,24.70
2019-05-21T11:29:56.923Z,25.10
2019-05-21T11:34:50.035Z,25.00
2019-05-21T11:39:39.637Z,24.70
2019-05-21T11:44:30.531Z,24.70
2019-05-21T11:49:21.438Z,24.90
2019-05-21T11:54:12.391Z,25.50
2019-05-21T11:59:03.385Z,25.80
2019-05-21T12:03:54.277Z,25.50
2019-05-21T12:08:56.342Z,25.20
2019-05-21T12:13:36.144Z,25.00
2019-05-21T12:18:27.099Z,25.10
2019-05-21T12:23:18.004Z,25.70
2019-05-21T12:28:11.344Z,26.00
2019-05-21T12:32:59.823Z,25.70
2019-05-21T12:37:50.742Z,25.40
2019-05-21T12:42:41.661Z,25.30
2019-05-21T12:47:32.559Z,25.50
2019-05-21T12:52:23.458Z,26.10
2019-05-21T12:57:15.094Z,26.10
2019-05-21T13:02:06.725Z,25.80
2019-05-21T13:06:58.372Z,25.70
2019-05-21T13:11:49.279Z,25.60
2019-05-21T13:16:40.928Z,26.40
2019-05-21T13:21:31.907Z,26.30
2019-05-21T13:26:22.815Z,26.60
2019-05-21T13:31:13.752Z,26.30
2019-05-21T13:36:04.679Z,26.00
2019-05-21T13:40:56.330Z,26.00
2019-05-21T13:45:47.970Z,26.60
2019-05-21T13:50:38.870Z,26.60
2019-05-21T13:55:33.922Z,26.60
2019-05-21T14:00:22.467Z,26.60
2019-05-21T14:05:13.401Z,26.40
2019-05-21T14:10:15.608Z,26.40
2019-05-21T14:14:55.275Z,26.80
2019-05-21T14:19:46.252Z,27.40
2019-05-21T14:24:37.183Z,27.60
2019-05-21T14:29:28.097Z,27.30
2019-05-21T14:34:19.011Z,27.00
2019-05-21T14:39:09.914Z,26.70
2019-05-21T14:44:01.619Z,27.80
2019-05-21T14:48:52.535Z,27.80
2019-05-21T14:53:43.446Z,28.00
2019-05-21T14:58:34.432Z,27.90
2019-05-21T15:03:25.813Z,27.80
2019-05-21T15:08:16.643Z,27.70
2019-05-21T15:13:08.348Z,28.30
2019-05-21T15:17:59.561Z,28.30
2019-05-21T15:22:50.635Z,28.50
2019-05-21T15:27:42.314Z,27.90
2019-05-21T15:32:34.059Z,27.80
2019-05-21T15:37:25.078Z,27.80
2019-05-21T15:42:17.151Z,28.40
2019-05-21T15:47:08.209Z,28.40
2019-05-21T15:51:59.376Z,28.20
2019-05-21T15:56:50.334Z,27.70
2019-05-21T16:01:41.362Z,27.30
2019-05-21T16:06:32.419Z,27.10
2019-05-21T16:11:28.553Z,27.20
2019-05-21T16:16:14.484Z,27.50
2019-05-21T16:21:05.479Z,27.30
2019-05-21T16:25:56.447Z,27.00
2019-05-21T16:30:48.563Z,26.50
2019-05-21T16:35:39.793Z,26.40
2019-05-21T16:40:30.719Z,26.90
2019-05-21T16:45:21.701Z,27.20
2019-05-21T16:50:12.655Z,26.90
2019-05-21T16:55:03.645Z,26.40
2019-05-21T16:59:54.673Z,25.80
2019-05-21T17:04:45.586Z,25.60
2019-05-21T17:09:36.531Z,25.90
2019-05-21T17:14:27.548Z,26.20
2019-05-21T17:19:18.462Z,25.90
2019-05-21T17:24:09.476Z,25.40
2019-05-21T17:29:00.416Z,24.90
2019-05-21T17:33:51.433Z,24.70
2019-05-21T17:38:43.463Z,25.40
2019-05-21T17:43:34.392Z,25.40
2019-05-21T17:48:25.296Z,25.20
2019-05-21T17:53:16.406Z,24.40
2019-05-21T17:58:07.683Z,24.30
2019-05-21T18:02:58.600Z,24.70
2019-05-21T18:07:51.676Z,25.00
2019-05-21T18:12:43.974Z,24.80
2019-05-21T18:17:35.043Z,24.30
2019-05-21T18:22:25.986Z,23.70
2019-05-21T18:27:17.635Z,23.50
2019-05-21T18:32:08.543Z,23.50
2019-05-21T18:37:00.186Z,23.70
2019-05-21T18:41:51.947Z,23.20
2019-05-21T18:46:42.906Z,23.20
2019-05-21T18:51:33.822Z,22.70
2019-05-21T18:56:24.842Z,22.30
2019-05-21T19:01:15.742Z,22.30
2019-05-21T19:06:06.665Z,22.80
2019-05-21T19:10:57.588Z,22.90
2019-05-21T19:15:48.487Z,22.40
2019-05-21T19:20:39.431Z,21.90
2019-05-21T19:25:31.066Z,21.20
2019-05-21T19:30:21.958Z,21.20
2019-05-21T19:35:12.856Z,21.60
2019-05-21T19:40:03.749Z,22.00
2019-05-21T19:44:55.406Z,21.10
2019-05-21T19:49:46.298Z,21.10
2019-05-21T19:54:37.186Z,20.70
2019-05-21T19:59:28.831Z,20.70
2019-05-21T20:04:19.738Z,20.60
2019-05-21T20:09:12.431Z,21.20
2019-05-21T20:14:03.322Z,21.10
2019-05-21T20:18:54.228Z,20.60
2019-05-21T20:23:45.130Z,20.20
2019-05-21T20:28:36.052Z,19.90
2019-05-21T20:33:26.950Z,19.80
2019-05-21T20:38:18.043Z,20.50
2019-05-21T20:43:09.108Z,20.80
2019-05-21T20:48:00.155Z,20.40
2019-05-21T20:52:51.901Z,19.60
2019-05-21T20:57:42.798Z,19.60
2019-05-21T21:02:33.784Z,19.40
2019-05-21T21:07:24.654Z,19.80
2019-05-21T21:12:15.561Z,20.40
2019-05-21T21:17:06.470Z,20.30
2019-05-21T21:21:57.447Z,19.90
2019-05-21T21:26:49.149Z,19.20
2019-05-21T21:31:40.054Z,19.10
2019-05-21T21:36:30.987Z,19.20
2019-05-21T21:41:21.952Z,20.00
2019-05-21T21:46:12.953Z,20.30
2019-05-21T21:51:03.945Z,19.90
2019-05-21T21:55:54.878Z,19.50
2019-05-21T22:00:55.228Z,19.10
2019-05-21T22:05:46.239Z,18.90
2019-05-21T22:10:37.252Z,19.30
2019-05-21T22:15:28.161Z,19.80
2019-05-21T22:20:19.802Z,19.30
2019-05-21T22:25:10.723Z,19.30
2019-05-21T22:30:01.632Z,18.90
2019-05-21T22:34:52.543Z,18.60
2019-05-21T22:39:43.485Z,18.60
2019-05-21T22:44:34.492Z,19.30
2019-05-21T22:49:25.402Z,19.60
2019-05-21T22:54:16.343Z,19.30
2019-05-21T22:59:07.354Z,18.80
2019-05-21T23:03:58.260Z,18.50
2019-05-21T23:08:49.190Z,18.30
2019-05-21T23:13:40.144Z,18.60
2019-05-21T23:18:31.868Z,19.20
2019-05-21T23:23:22.871Z,19.20
2019-05-21T23:28:21.635Z,18.40
2019-05-21T23:33:12.586Z,18.40
2019-05-21T23:38:03.503Z,18.10
2019-05-21T23:42:54.398Z,18.00
2019-05-21T23:47:45.358Z,18.70
2019-05-21T23:52:37.366Z,19.00
2019-05-21T23:57:28.103Z,18.70
